sensor_id;sensor_type;location;lat;lon;timestamp;P1;durP1;ratioP1;P2;durP2;ratioP2
69744;SDS011;57015;50.120;-5.168;2022-07-10T00:01:55;1.48;;;0.25;;
69744;SDS011;57015;50.120;-5.168;2022-07-10T00:04:21;2.57;;;0.33;;
69744;SDS011;57015;50.120;-5.168;2022-07-10T00:06:46;3.55;;;0.30;;
69744;SDS011;57015;50.120;-5.168;2022-07-10T00:09:12;3.55;;;0.40;;
69744;SDS011;57015;50.120;-5.168;2022-07-10T00:11:39;2.10;;;0.47;;
69744;SDS011;57015;50.120;-5.168;2022-07-10T00:14:05;1.83;;;0.40;;
69744;SDS011;57015;50.120;-5.168;2022-07-10T00:16:30;1.75;;;0.35;;
69744;SDS011;57015;50.120;-5.168;2022-07-10T00:18:55;1.80;;;0.30;;
69744;SDS011;57015;50.120;-5.168;2022-07-10T00:21:21;1.97;;;0.33;;
69744;SDS011;57015;50.120;-5.168;2022-07-10T00:23:46;2.10;;;0.20;;
69744;SDS011;57015;50.120;-5.168;2022-07-10T00:26:12;2.43;;;0.30;;
69744;SDS011;57015;50.120;-5.168;2022-07-10T00:28:37;2.13;;;0.30;;
69744;SDS011;57015;50.120;-5.168;2022-07-10T00:31:02;1.17;;;0.20;;
69744;SDS011;57015;50.120;-5.168;2022-07-10T00:33:28;1.50;;;0.30;;
69744;SDS011;57015;50.120;-5.168;2022-07-10T00:35:55;1.87;;;0.40;;
69744;SDS011;57015;50.120;-5.168;2022-07-10T00:38:21;1.48;;;0.20;;
69744;SDS011;57015;50.120;-5.168;2022-07-10T00:40:46;1.50;;;0.40;;
69744;SDS011;57015;50.120;-5.168;2022-07-10T00:43:12;3.87;;;0.50;;
69744;SDS011;57015;50.120;-5.168;2022-07-10T00:45:37;1.80;;;0.30;;
69744;SDS011;57015;50.120;-5.168;2022-07-10T00:48:02;1.80;;;0.30;;
69744;SDS011;57015;50.120;-5.168;2022-07-10T00:50:28;1.70;;;0.35;;
69744;SDS011;57015;50.120;-5.168;2022-07-10T00:52:54;2.20;;;0.40;;
69744;SDS011;57015;50.120;-5.168;2022-07-10T00:55:19;2.05;;;0.30;;
69744;SDS011;57015;50.120;-5.168;2022-07-10T00:57:45;1.23;;;0.20;;
69744;SDS011;57015;50.120;-5.168;2022-07-10T01:00:10;1.77;;;0.30;;
69744;SDS011;57015;50.120;-5.168;2022-07-10T01:02:37;1.88;;;0.30;;
69744;SDS011;57015;50.120;-5.168;2022-07-10T01:05:06;1.20;;;0.30;;
69744;SDS011;57015;50.120;-5.168;2022-07-10T01:07:32;1.63;;;0.38;;
69744;SDS011;57015;50.120;-5.168;2022-07-10T01:09:57;2.63;;;0.20;;
69744;SDS011;57015;50.120;-5.168;2022-07-10T01:12:24;3.10;;;0.57;;
69744;SDS011;57015;50.120;-5.168;2022-07-10T01:14:51;1.00;;;0.30;;
69744;SDS011;57015;50.120;-5.168;2022-07-10T01:17:16;2.20;;;0.30;;
69744;SDS011;57015;50.120;-5.168;2022-07-10T01:19:42;2.13;;;0.35;;
69744;SDS011;57015;50.120;-5.168;2022-07-10T01:22:08;1.27;;;0.33;;
69744;SDS011;57015;50.120;-5.168;2022-07-10T01:24:33;3.47;;;0.43;;
69744;SDS011;57015;50.120;-5.168;2022-07-10T01:26:59;1.10;;;0.30;;
69744;SDS011;57015;50.120;-5.168;2022-07-10T01:29:25;1.67;;;0.30;;
69744;SDS011;57015;50.120;-5.168;2022-07-10T01:31:50;2.67;;;0.40;;
69744;SDS011;57015;50.120;-5.168;2022-07-10T01:34:15;2.37;;;0.30;;
69744;SDS011;57015;50.120;-5.168;2022-07-10T01:36:41;1.33;;;0.20;;
69744;SDS011;57015;50.120;-5.168;2022-07-10T01:39:07;1.40;;;0.20;;
69744;SDS011;57015;50.120;-5.168;2022-07-10T01:41:32;5.07;;;0.20;;
69744;SDS011;57015;50.120;-5.168;2022-07-10T01:43:58;1.40;;;0.38;;
69744;SDS011;57015;50.120;-5.168;2022-07-10T01:46:24;1.83;;;0.47;;
69744;SDS011;57015;50.120;-5.168;2022-07-10T01:48:50;0.90;;;0.30;;
69744;SDS011;57015;50.120;-5.168;2022-07-10T01:51:16;0.80;;;0.20;;
69744;SDS011;57015;50.120;-5.168;2022-07-10T01:53:41;0.93;;;0.30;;
69744;SDS011;57015;50.120;-5.168;2022-07-10T01:56:08;2.70;;;0.20;;
69744;SDS011;57015;50.120;-5.168;2022-07-10T01:58:35;4.43;;;0.40;;
69744;SDS011;57015;50.120;-5.168;2022-07-10T02:01:01;1.40;;;0.47;;
69744;SDS011;57015;50.120;-5.168;2022-07-10T02:03:27;0.80;;;0.20;;
69744;SDS011;57015;50.120;-5.168;2022-07-10T02:06:11;1.35;;;0.28;;
69744;SDS011;57015;50.120;-5.168;2022-07-10T02:08:36;2.27;;;0.37;;
69744;SDS011;57015;50.120;-5.168;2022-07-10T02:11:02;3.72;;;0.30;;
69744;SDS011;57015;50.120;-5.168;2022-07-10T02:13:27;1.60;;;0.33;;
69744;SDS011;57015;50.120;-5.168;2022-07-10T02:15:53;1.30;;;0.30;;
69744;SDS011;57015;50.120;-5.168;2022-07-10T02:18:19;1.70;;;0.30;;
69744;SDS011;57015;50.120;-5.168;2022-07-10T02:20:45;1.40;;;0.30;;
69744;SDS011;57015;50.120;-5.168;2022-07-10T02:23:11;1.98;;;0.20;;
69744;SDS011;57015;50.120;-5.168;2022-07-10T02:25:37;2.95;;;0.30;;
69744;SDS011;57015;50.120;-5.168;2022-07-10T02:28:02;1.30;;;0.60;;
69744;SDS011;57015;50.120;-5.168;2022-07-10T02:30:28;2.70;;;0.33;;
69744;SDS011;57015;50.120;-5.168;2022-07-10T02:32:53;1.27;;;0.20;;
69744;SDS011;57015;50.120;-5.168;2022-07-10T02:35:18;2.73;;;0.40;;
69744;SDS011;57015;50.120;-5.168;2022-07-10T02:37:44;2.25;;;0.32;;
69744;SDS011;57015;50.120;-5.168;2022-07-10T02:40:09;2.07;;;0.40;;
69744;SDS011;57015;50.120;-5.168;2022-07-10T02:42:35;1.10;;;0.30;;
69744;SDS011;57015;50.120;-5.168;2022-07-10T02:45:01;1.27;;;0.30;;
69744;SDS011;57015;50.120;-5.168;2022-07-10T02:47:26;1.03;;;0.30;;
69744;SDS011;57015;50.120;-5.168;2022-07-10T02:49:51;1.50;;;0.30;;
69744;SDS011;57015;50.120;-5.168;2022-07-10T02:52:17;2.00;;;0.30;;
69744;SDS011;57015;50.120;-5.168;2022-07-10T02:54:42;1.67;;;0.77;;
69744;SDS011;57015;50.120;-5.168;2022-07-10T02:57:08;4.30;;;0.50;;
69744;SDS011;57015;50.120;-5.168;2022-07-10T02:59:33;2.43;;;0.40;;
69744;SDS011;57015;50.120;-5.168;2022-07-10T03:01:58;2.07;;;0.50;;
69744;SDS011;57015;50.120;-5.168;2022-07-10T03:04:24;2.30;;;0.40;;
69744;SDS011;57015;50.120;-5.168;2022-07-10T03:06:49;2.23;;;0.30;;
69744;SDS011;57015;50.120;-5.168;2022-07-10T03:09:15;1.92;;;0.20;;
69744;SDS011;57015;50.120;-5.168;2022-07-10T03:11:40;1.80;;;0.33;;
69744;SDS011;57015;50.120;-5.168;2022-07-10T03:14:05;1.87;;;0.27;;
69744;SDS011;57015;50.120;-5.168;2022-07-10T03:16:31;3.00;;;0.20;;
69744;SDS011;57015;50.120;-5.168;2022-07-10T03:18:57;1.38;;;0.35;;
69744;SDS011;57015;50.120;-5.168;2022-07-10T03:21:22;2.10;;;0.33;;
69744;SDS011;57015;50.120;-5.168;2022-07-10T03:23:48;1.00;;;0.22;;
69744;SDS011;57015;50.120;-5.168;2022-07-10T03:26:13;1.60;;;0.30;;
69744;SDS011;57015;50.120;-5.168;2022-07-10T03:28:39;1.03;;;0.20;;
69744;SDS011;57015;50.120;-5.168;2022-07-10T03:31:04;3.00;;;0.30;;
69744;SDS011;57015;50.120;-5.168;2022-07-10T03:33:30;1.27;;;0.37;;
69744;SDS011;57015;50.120;-5.168;2022-07-10T03:35:55;1.03;;;0.30;;
69744;SDS011;57015;50.120;-5.168;2022-07-10T03:38:20;2.08;;;0.30;;
69744;SDS011;57015;50.120;-5.168;2022-07-10T03:40:46;1.07;;;0.20;;
69744;SDS011;57015;50.120;-5.168;2022-07-10T03:43:14;1.10;;;0.20;;
69744;SDS011;57015;50.120;-5.168;2022-07-10T03:45:40;1.30;;;0.30;;
69744;SDS011;57015;50.120;-5.168;2022-07-10T03:48:06;2.72;;;0.35;;
69744;SDS011;57015;50.120;-5.168;2022-07-10T03:50:32;1.27;;;0.30;;
69744;SDS011;57015;50.120;-5.168;2022-07-10T03:52:58;1.25;;;0.40;;
69744;SDS011;57015;50.120;-5.168;2022-07-10T03:55:23;1.20;;;0.33;;
69744;SDS011;57015;50.120;-5.168;2022-07-10T03:57:49;1.10;;;0.30;;
69744;SDS011;57015;50.120;-5.168;2022-07-10T04:00:27;2.13;;;0.40;;
69744;SDS011;57015;50.120;-5.168;2022-07-10T04:05:25;1.73;;;0.40;;
69744;SDS011;57015;50.120;-5.168;2022-07-10T04:07:51;3.35;;;0.52;;
69744;SDS011;57015;50.120;-5.168;2022-07-10T04:10:17;4.25;;;0.40;;
69744;SDS011;57015;50.120;-5.168;2022-07-10T04:12:43;1.38;;;0.40;;
69744;SDS011;57015;50.120;-5.168;2022-07-10T04:15:09;1.25;;;0.30;;
69744;SDS011;57015;50.120;-5.168;2022-07-10T04:17:34;1.90;;;0.30;;
69744;SDS011;57015;50.120;-5.168;2022-07-10T04:20:00;0.83;;;0.20;;
69744;SDS011;57015;50.120;-5.168;2022-07-10T04:22:26;1.75;;;0.20;;
69744;SDS011;57015;50.120;-5.168;2022-07-10T04:24:52;1.00;;;0.30;;
69744;SDS011;57015;50.120;-5.168;2022-07-10T04:27:18;2.45;;;0.45;;
69744;SDS011;57015;50.120;-5.168;2022-07-10T04:29:44;2.20;;;0.20;;
69744;SDS011;57015;50.120;-5.168;2022-07-10T04:32:09;1.37;;;0.20;;
69744;SDS011;57015;50.120;-5.168;2022-07-10T04:34:35;3.00;;;0.40;;
69744;SDS011;57015;50.120;-5.168;2022-07-10T04:37:00;3.13;;;0.30;;
69744;SDS011;57015;50.120;-5.168;2022-07-10T04:39:26;1.30;;;0.30;;
69744;SDS011;57015;50.120;-5.168;2022-07-10T04:41:51;2.72;;;0.38;;
69744;SDS011;57015;50.120;-5.168;2022-07-10T04:44:17;1.97;;;0.30;;
69744;SDS011;57015;50.120;-5.168;2022-07-10T04:46:43;1.58;;;0.30;;
69744;SDS011;57015;50.120;-5.168;2022-07-10T04:49:08;1.10;;;0.27;;
69744;SDS011;57015;50.120;-5.168;2022-07-10T04:51:34;3.60;;;0.40;;
69744;SDS011;57015;50.120;-5.168;2022-07-10T04:53:59;1.55;;;0.20;;
69744;SDS011;57015;50.120;-5.168;2022-07-10T04:56:25;2.40;;;0.57;;
69744;SDS011;57015;50.120;-5.168;2022-07-10T04:58:51;1.48;;;0.30;;
69744;SDS011;57015;50.120;-5.168;2022-07-10T05:01:16;1.17;;;0.30;;
69744;SDS011;57015;50.120;-5.168;2022-07-10T05:03:42;1.10;;;0.20;;
69744;SDS011;57015;50.120;-5.168;2022-07-10T05:06:07;3.90;;;0.40;;
69744;SDS011;57015;50.120;-5.168;2022-07-10T05:08:33;1.30;;;0.40;;
69744;SDS011;57015;50.120;-5.168;2022-07-10T05:10:58;2.70;;;0.30;;
69744;SDS011;57015;50.120;-5.168;2022-07-10T05:13:24;1.17;;;0.30;;
69744;SDS011;57015;50.120;-5.168;2022-07-10T05:15:49;1.20;;;0.30;;
69744;SDS011;57015;50.120;-5.168;2022-07-10T05:18:15;1.13;;;0.28;;
69744;SDS011;57015;50.120;-5.168;2022-07-10T05:20:41;1.40;;;0.33;;
69744;SDS011;57015;50.120;-5.168;2022-07-10T05:23:08;1.15;;;0.30;;
69744;SDS011;57015;50.120;-5.168;2022-07-10T05:25:34;2.20;;;0.30;;
69744;SDS011;57015;50.120;-5.168;2022-07-10T05:28:02;1.33;;;0.30;;
69744;SDS011;57015;50.120;-5.168;2022-07-10T05:30:29;1.93;;;0.50;;
69744;SDS011;57015;50.120;-5.168;2022-07-10T05:32:54;2.25;;;0.35;;
69744;SDS011;57015;50.120;-5.168;2022-07-10T05:35:19;2.05;;;0.32;;
69744;SDS011;57015;50.120;-5.168;2022-07-10T05:37:45;1.10;;;0.30;;
69744;SDS011;57015;50.120;-5.168;2022-07-10T05:40:10;1.10;;;0.33;;
69744;SDS011;57015;50.120;-5.168;2022-07-10T05:42:37;1.45;;;0.22;;
69744;SDS011;57015;50.120;-5.168;2022-07-10T05:45:02;1.27;;;0.30;;
69744;SDS011;57015;50.120;-5.168;2022-07-10T05:47:29;1.40;;;0.30;;
69744;SDS011;57015;50.120;-5.168;2022-07-10T05:49:55;2.40;;;0.30;;
69744;SDS011;57015;50.120;-5.168;2022-07-10T05:52:20;1.20;;;0.40;;
69744;SDS011;57015;50.120;-5.168;2022-07-10T05:54:45;3.83;;;0.37;;
69744;SDS011;57015;50.120;-5.168;2022-07-10T05:57:11;2.33;;;0.30;;
69744;SDS011;57015;50.120;-5.168;2022-07-10T05:59:36;3.83;;;0.40;;
69744;SDS011;57015;50.120;-5.168;2022-07-10T06:02:02;1.35;;;0.32;;
69744;SDS011;57015;50.120;-5.168;2022-07-10T06:04:27;1.27;;;0.20;;
69744;SDS011;57015;50.120;-5.168;2022-07-10T06:06:53;1.70;;;0.60;;
69744;SDS011;57015;50.120;-5.168;2022-07-10T06:09:18;1.20;;;0.30;;
69744;SDS011;57015;50.120;-5.168;2022-07-10T06:11:44;1.20;;;0.20;;
69744;SDS011;57015;50.120;-5.168;2022-07-10T06:14:11;1.98;;;0.93;;
69744;SDS011;57015;50.120;-5.168;2022-07-10T06:16:37;1.92;;;0.35;;
69744;SDS011;57015;50.120;-5.168;2022-07-10T06:19:02;1.83;;;0.43;;
69744;SDS011;57015;50.120;-5.168;2022-07-10T06:21:28;1.63;;;0.40;;
69744;SDS011;57015;50.120;-5.168;2022-07-10T06:23:53;1.77;;;0.50;;
69744;SDS011;57015;50.120;-5.168;2022-07-10T06:26:19;1.17;;;0.50;;
69744;SDS011;57015;50.120;-5.168;2022-07-10T06:28:44;5.03;;;0.60;;
69744;SDS011;57015;50.120;-5.168;2022-07-10T06:31:10;1.83;;;0.40;;
69744;SDS011;57015;50.120;-5.168;2022-07-10T06:33:35;1.67;;;0.50;;
69744;SDS011;57015;50.120;-5.168;2022-07-10T06:36:01;2.60;;;0.60;;
69744;SDS011;57015;50.120;-5.168;2022-07-10T06:38:27;2.50;;;0.60;;
69744;SDS011;57015;50.120;-5.168;2022-07-10T06:40:52;2.37;;;0.43;;
69744;SDS011;57015;50.120;-5.168;2022-07-10T06:43:17;1.77;;;0.50;;
69744;SDS011;57015;50.120;-5.168;2022-07-10T06:45:43;2.45;;;0.50;;
69744;SDS011;57015;50.120;-5.168;2022-07-10T06:48:09;2.35;;;0.50;;
69744;SDS011;57015;50.120;-5.168;2022-07-10T06:50:34;2.03;;;0.40;;
69744;SDS011;57015;50.120;-5.168;2022-07-10T06:53:01;3.70;;;0.40;;
69744;SDS011;57015;50.120;-5.168;2022-07-10T06:55:27;2.17;;;0.40;;
69744;SDS011;57015;50.120;-5.168;2022-07-10T06:57:53;2.25;;;0.50;;
69744;SDS011;57015;50.120;-5.168;2022-07-10T07:00:20;2.38;;;0.52;;
69744;SDS011;57015;50.120;-5.168;2022-07-10T07:02:45;2.13;;;0.47;;
69744;SDS011;57015;50.120;-5.168;2022-07-10T07:05:11;2.63;;;0.60;;
69744;SDS011;57015;50.120;-5.168;2022-07-10T07:07:37;1.65;;;0.30;;
69744;SDS011;57015;50.120;-5.168;2022-07-10T07:10:03;1.95;;;0.50;;
69744;SDS011;57015;50.120;-5.168;2022-07-10T07:12:29;4.65;;;0.60;;
69744;SDS011;57015;50.120;-5.168;2022-07-10T07:14:54;1.90;;;0.60;;
69744;SDS011;57015;50.120;-5.168;2022-07-10T07:17:20;1.55;;;0.57;;
69744;SDS011;57015;50.120;-5.168;2022-07-10T07:19:50;2.33;;;0.70;;
69744;SDS011;57015;50.120;-5.168;2022-07-10T07:22:34;2.85;;;0.70;;
69744;SDS011;57015;50.120;-5.168;2022-07-10T07:25:19;4.38;;;0.85;;
69744;SDS011;57015;50.120;-5.168;2022-07-10T07:27:44;6.63;;;1.00;;
69744;SDS011;57015;50.120;-5.168;2022-07-10T07:30:11;2.38;;;0.50;;
69744;SDS011;57015;50.120;-5.168;2022-07-10T07:32:40;4.32;;;0.70;;
69744;SDS011;57015;50.120;-5.168;2022-07-10T07:35:06;2.90;;;0.60;;
69744;SDS011;57015;50.120;-5.168;2022-07-10T07:38:05;3.80;;;0.57;;
69744;SDS011;57015;50.120;-5.168;2022-07-10T07:40:23;2.95;;;0.63;;
69744;SDS011;57015;50.120;-5.168;2022-07-10T07:42:50;2.93;;;0.70;;
69744;SDS011;57015;50.120;-5.168;2022-07-10T07:45:16;4.05;;;0.52;;
69744;SDS011;57015;50.120;-5.168;2022-07-10T07:47:55;3.80;;;0.87;;
69744;SDS011;57015;50.120;-5.168;2022-07-10T07:50:22;3.97;;;0.70;;
69744;SDS011;57015;50.120;-5.168;2022-07-10T07:52:48;2.28;;;0.82;;
69744;SDS011;57015;50.120;-5.168;2022-07-10T07:55:14;7.97;;;0.68;;
69744;SDS011;57015;50.120;-5.168;2022-07-10T07:57:41;3.30;;;0.73;;
69744;SDS011;57015;50.120;-5.168;2022-07-10T08:00:08;4.03;;;0.75;;
69744;SDS011;57015;50.120;-5.168;2022-07-10T08:02:34;3.03;;;0.63;;
69744;SDS011;57015;50.120;-5.168;2022-07-10T08:05:00;3.33;;;1.00;;
69744;SDS011;57015;50.120;-5.168;2022-07-10T08:07:36;3.37;;;0.80;;
69744;SDS011;57015;50.120;-5.168;2022-07-10T08:10:02;3.05;;;0.80;;
69744;SDS011;57015;50.120;-5.168;2022-07-10T08:12:29;4.00;;;0.82;;
69744;SDS011;57015;50.120;-5.168;2022-07-10T08:14:54;4.07;;;0.80;;
69744;SDS011;57015;50.120;-5.168;2022-07-10T08:17:20;4.20;;;0.90;;
69744;SDS011;57015;50.120;-5.168;2022-07-10T08:19:47;2.60;;;0.73;;
69744;SDS011;57015;50.120;-5.168;2022-07-10T08:22:13;3.00;;;1.13;;
69744;SDS011;57015;50.120;-5.168;2022-07-10T08:24:38;2.53;;;0.90;;
69744;SDS011;57015;50.120;-5.168;2022-07-10T08:27:04;4.00;;;0.87;;
69744;SDS011;57015;50.120;-5.168;2022-07-10T08:29:31;3.53;;;1.20;;
69744;SDS011;57015;50.120;-5.168;2022-07-10T08:31:56;3.27;;;0.87;;
69744;SDS011;57015;50.120;-5.168;2022-07-10T08:34:21;2.93;;;0.77;;
69744;SDS011;57015;50.120;-5.168;2022-07-10T08:36:47;5.37;;;1.13;;
69744;SDS011;57015;50.120;-5.168;2022-07-10T08:39:12;3.90;;;0.97;;
69744;SDS011;57015;50.120;-5.168;2022-07-10T08:41:38;5.87;;;1.10;;
69744;SDS011;57015;50.120;-5.168;2022-07-10T08:44:03;3.13;;;1.17;;
69744;SDS011;57015;50.120;-5.168;2022-07-10T08:46:29;3.70;;;0.90;;
69744;SDS011;57015;50.120;-5.168;2022-07-10T08:48:57;3.78;;;0.98;;
69744;SDS011;57015;50.120;-5.168;2022-07-10T08:51:41;2.97;;;1.05;;
69744;SDS011;57015;50.120;-5.168;2022-07-10T08:54:12;4.27;;;0.70;;
69744;SDS011;57015;50.120;-5.168;2022-07-10T08:56:38;3.58;;;1.10;;
69744;SDS011;57015;50.120;-5.168;2022-07-10T08:59:04;3.37;;;1.00;;
69744;SDS011;57015;50.120;-5.168;2022-07-10T09:01:30;3.83;;;1.00;;
69744;SDS011;57015;50.120;-5.168;2022-07-10T09:03:56;2.58;;;1.00;;
69744;SDS011;57015;50.120;-5.168;2022-07-10T09:06:21;4.13;;;1.40;;
69744;SDS011;57015;50.120;-5.168;2022-07-10T09:08:57;6.77;;;1.00;;
69744;SDS011;57015;50.120;-5.168;2022-07-10T09:11:23;4.72;;;0.88;;
69744;SDS011;57015;50.120;-5.168;2022-07-10T09:13:51;4.30;;;0.90;;
69744;SDS011;57015;50.120;-5.168;2022-07-10T09:16:21;4.50;;;0.98;;
69744;SDS011;57015;50.120;-5.168;2022-07-10T09:18:49;3.50;;;1.00;;
69744;SDS011;57015;50.120;-5.168;2022-07-10T09:21:15;3.50;;;1.10;;
69744;SDS011;57015;50.120;-5.168;2022-07-10T09:23:41;3.60;;;1.27;;
69744;SDS011;57015;50.120;-5.168;2022-07-10T09:26:06;6.93;;;1.20;;
69744;SDS011;57015;50.120;-5.168;2022-07-10T09:28:32;4.72;;;1.55;;
69744;SDS011;57015;50.120;-5.168;2022-07-10T09:30:57;3.03;;;0.53;;
69744;SDS011;57015;50.120;-5.168;2022-07-10T09:33:24;4.43;;;1.10;;
69744;SDS011;57015;50.120;-5.168;2022-07-10T09:36:01;5.85;;;1.08;;
69744;SDS011;57015;50.120;-5.168;2022-07-10T09:41:13;5.88;;;1.20;;
69744;SDS011;57015;50.120;-5.168;2022-07-10T09:43:53;4.78;;;1.25;;
69744;SDS011;57015;50.120;-5.168;2022-07-10T09:46:24;4.30;;;1.30;;
69744;SDS011;57015;50.120;-5.168;2022-07-10T09:49:00;2.95;;;1.20;;
69744;SDS011;57015;50.120;-5.168;2022-07-10T09:51:30;4.57;;;1.17;;
69744;SDS011;57015;50.120;-5.168;2022-07-10T09:53:58;5.10;;;0.98;;
69744;SDS011;57015;50.120;-5.168;2022-07-10T09:56:25;4.60;;;1.30;;
69744;SDS011;57015;50.120;-5.168;2022-07-10T09:58:52;3.63;;;1.20;;
69744;SDS011;57015;50.120;-5.168;2022-07-10T10:01:17;5.28;;;1.23;;
69744;SDS011;57015;50.120;-5.168;2022-07-10T10:03:43;5.15;;;1.33;;
69744;SDS011;57015;50.120;-5.168;2022-07-10T10:06:11;4.37;;;1.03;;
69744;SDS011;57015;50.120;-5.168;2022-07-10T10:11:27;4.47;;;1.45;;
69744;SDS011;57015;50.120;-5.168;2022-07-10T10:13:53;3.40;;;1.15;;
69744;SDS011;57015;50.120;-5.168;2022-07-10T10:16:19;5.53;;;1.50;;
69744;SDS011;57015;50.120;-5.168;2022-07-10T10:18:46;3.83;;;1.27;;
69744;SDS011;57015;50.120;-5.168;2022-07-10T10:21:30;5.25;;;1.48;;
69744;SDS011;57015;50.120;-5.168;2022-07-10T10:23:56;4.35;;;1.33;;
69744;SDS011;57015;50.120;-5.168;2022-07-10T10:26:22;6.60;;;1.40;;
69744;SDS011;57015;50.120;-5.168;2022-07-10T10:28:50;7.28;;;1.40;;
69744;SDS011;57015;50.120;-5.168;2022-07-10T10:31:17;4.00;;;1.30;;
69744;SDS011;57015;50.120;-5.168;2022-07-10T10:33:43;6.75;;;1.23;;
69744;SDS011;57015;50.120;-5.168;2022-07-10T10:36:11;3.63;;;1.02;;
69744;SDS011;57015;50.120;-5.168;2022-07-10T10:49:18;5.05;;;1.50;;
69744;SDS011;57015;50.120;-5.168;2022-07-10T10:54:25;3.05;;;1.10;;
69744;SDS011;57015;50.120;-5.168;2022-07-10T10:57:13;2.15;;;0.75;;
69744;SDS011;57015;50.120;-5.168;2022-07-10T11:11:00;4.78;;;1.40;;
69744;SDS011;57015;50.120;-5.168;2022-07-10T11:15:39;3.17;;;0.77;;
69744;SDS011;57015;50.120;-5.168;2022-07-10T11:18:20;4.90;;;1.10;;
69744;SDS011;57015;50.120;-5.168;2022-07-10T11:20:53;2.47;;;0.65;;
69744;SDS011;57015;50.120;-5.168;2022-07-10T11:29:02;2.88;;;0.68;;
69744;SDS011;57015;50.120;-5.168;2022-07-10T11:31:30;4.40;;;1.05;;
69744;SDS011;57015;50.120;-5.168;2022-07-10T11:33:59;1.63;;;0.70;;
69744;SDS011;57015;50.120;-5.168;2022-07-10T11:36:26;2.83;;;0.57;;
69744;SDS011;57015;50.120;-5.168;2022-07-10T11:41:32;2.75;;;0.90;;
69744;SDS011;57015;50.120;-5.168;2022-07-10T11:43:59;3.17;;;0.82;;
69744;SDS011;57015;50.120;-5.168;2022-07-10T11:46:26;4.13;;;1.53;;
69744;SDS011;57015;50.120;-5.168;2022-07-10T11:48:53;2.08;;;0.70;;
69744;SDS011;57015;50.120;-5.168;2022-07-10T11:54:03;3.45;;;0.70;;
69744;SDS011;57015;50.120;-5.168;2022-07-10T11:56:32;4.50;;;1.13;;
69744;SDS011;57015;50.120;-5.168;2022-07-10T11:59:00;2.57;;;0.90;;
69744;SDS011;57015;50.120;-5.168;2022-07-10T12:01:30;2.53;;;0.73;;
69744;SDS011;57015;50.120;-5.168;2022-07-10T12:04:02;2.92;;;0.85;;
69744;SDS011;57015;50.120;-5.168;2022-07-10T12:06:29;3.80;;;0.93;;
69744;SDS011;57015;50.120;-5.168;2022-07-10T12:08:56;2.20;;;0.80;;
69744;SDS011;57015;50.120;-5.168;2022-07-10T12:11:22;2.10;;;0.70;;
69744;SDS011;57015;50.120;-5.168;2022-07-10T12:13:49;2.42;;;0.95;;
69744;SDS011;57015;50.120;-5.168;2022-07-10T12:16:16;4.15;;;0.73;;
69744;SDS011;57015;50.120;-5.168;2022-07-10T12:18:42;2.97;;;0.98;;
69744;SDS011;57015;50.120;-5.168;2022-07-10T12:21:08;1.83;;;1.00;;
69744;SDS011;57015;50.120;-5.168;2022-07-10T12:23:34;3.20;;;0.70;;
69744;SDS011;57015;50.120;-5.168;2022-07-10T12:26:03;3.80;;;0.77;;
69744;SDS011;57015;50.120;-5.168;2022-07-10T12:28:29;2.17;;;0.50;;
69744;SDS011;57015;50.120;-5.168;2022-07-10T12:30:54;2.90;;;0.80;;
69744;SDS011;57015;50.120;-5.168;2022-07-10T12:33:21;2.23;;;0.80;;
69744;SDS011;57015;50.120;-5.168;2022-07-10T12:35:51;3.97;;;1.17;;
69744;SDS011;57015;50.120;-5.168;2022-07-10T12:38:20;5.07;;;1.00;;
69744;SDS011;57015;50.120;-5.168;2022-07-10T12:40:47;2.13;;;1.10;;
69744;SDS011;57015;50.120;-5.168;2022-07-10T12:43:23;3.83;;;0.90;;
69744;SDS011;57015;50.120;-5.168;2022-07-10T12:48:35;2.72;;;1.05;;
69744;SDS011;57015;50.120;-5.168;2022-07-10T12:51:22;3.23;;;1.03;;
69744;SDS011;57015;50.120;-5.168;2022-07-10T12:53:49;2.42;;;1.20;;
69744;SDS011;57015;50.120;-5.168;2022-07-10T12:56:32;3.10;;;1.00;;
69744;SDS011;57015;50.120;-5.168;2022-07-10T12:58:59;2.35;;;0.70;;
69744;SDS011;57015;50.120;-5.168;2022-07-10T13:01:28;2.30;;;0.80;;
69744;SDS011;57015;50.120;-5.168;2022-07-10T13:04:00;3.25;;;1.00;;
69744;SDS011;57015;50.120;-5.168;2022-07-10T13:08:55;2.75;;;0.95;;
69744;SDS011;57015;50.120;-5.168;2022-07-10T13:11:21;2.93;;;0.80;;
69744;SDS011;57015;50.120;-5.168;2022-07-10T13:13:47;1.25;;;0.55;;
69744;SDS011;57015;50.120;-5.168;2022-07-10T13:16:16;1.83;;;0.90;;
69744;SDS011;57015;50.120;-5.168;2022-07-10T13:18:42;3.40;;;0.88;;
69744;SDS011;57015;50.120;-5.168;2022-07-10T13:21:07;2.17;;;0.70;;
69744;SDS011;57015;50.120;-5.168;2022-07-10T13:23:33;2.27;;;0.77;;
69744;SDS011;57015;50.120;-5.168;2022-07-10T13:25:59;1.57;;;0.80;;
69744;SDS011;57015;50.120;-5.168;2022-07-10T13:28:26;3.92;;;1.05;;
69744;SDS011;57015;50.120;-5.168;2022-07-10T13:30:51;2.03;;;0.90;;
69744;SDS011;57015;50.120;-5.168;2022-07-10T13:33:17;2.43;;;0.77;;
69744;SDS011;57015;50.120;-5.168;2022-07-10T13:35:43;2.60;;;0.80;;
69744;SDS011;57015;50.120;-5.168;2022-07-10T13:38:08;2.45;;;0.30;;
69744;SDS011;57015;50.120;-5.168;2022-07-10T13:40:35;3.20;;;0.70;;
69744;SDS011;57015;50.120;-5.168;2022-07-10T13:43:01;2.78;;;0.70;;
69744;SDS011;57015;50.120;-5.168;2022-07-10T13:45:28;2.35;;;0.60;;
69744;SDS011;57015;50.120;-5.168;2022-07-10T13:48:05;2.33;;;0.63;;
69744;SDS011;57015;50.120;-5.168;2022-07-10T13:50:30;1.10;;;0.50;;
69744;SDS011;57015;50.120;-5.168;2022-07-10T13:52:56;1.67;;;0.77;;
69744;SDS011;57015;50.120;-5.168;2022-07-10T13:55:21;2.30;;;0.77;;
69744;SDS011;57015;50.120;-5.168;2022-07-10T13:57:47;2.53;;;0.80;;
69744;SDS011;57015;50.120;-5.168;2022-07-10T14:00:12;3.10;;;0.50;;
69744;SDS011;57015;50.120;-5.168;2022-07-10T14:02:38;2.92;;;0.95;;
69744;SDS011;57015;50.120;-5.168;2022-07-10T14:05:04;1.33;;;0.60;;
69744;SDS011;57015;50.120;-5.168;2022-07-10T14:07:30;1.83;;;0.70;;
69744;SDS011;57015;50.120;-5.168;2022-07-10T14:09:55;2.47;;;0.43;;
69744;SDS011;57015;50.120;-5.168;2022-07-10T14:12:21;2.47;;;0.70;;
69744;SDS011;57015;50.120;-5.168;2022-07-10T14:14:47;1.50;;;0.95;;
69744;SDS011;57015;50.120;-5.168;2022-07-10T14:17:12;1.40;;;0.65;;
69744;SDS011;57015;50.120;-5.168;2022-07-10T14:19:38;1.93;;;0.77;;
69744;SDS011;57015;50.120;-5.168;2022-07-10T14:22:05;2.47;;;0.85;;
69744;SDS011;57015;50.120;-5.168;2022-07-10T14:24:31;3.90;;;1.00;;
69744;SDS011;57015;50.120;-5.168;2022-07-10T14:26:56;2.73;;;0.93;;
69744;SDS011;57015;50.120;-5.168;2022-07-10T14:29:22;2.28;;;1.05;;
69744;SDS011;57015;50.120;-5.168;2022-07-10T14:31:47;2.57;;;1.00;;
69744;SDS011;57015;50.120;-5.168;2022-07-10T14:34:14;2.80;;;0.77;;
69744;SDS011;57015;50.120;-5.168;2022-07-10T14:36:40;2.37;;;0.90;;
69744;SDS011;57015;50.120;-5.168;2022-07-10T14:39:06;2.67;;;1.00;;
69744;SDS011;57015;50.120;-5.168;2022-07-10T14:41:31;3.80;;;0.97;;
69744;SDS011;57015;50.120;-5.168;2022-07-10T14:43:57;2.63;;;0.90;;
69744;SDS011;57015;50.120;-5.168;2022-07-10T14:46:22;1.23;;;0.60;;
69744;SDS011;57015;50.120;-5.168;2022-07-10T14:48:48;1.83;;;0.70;;
69744;SDS011;57015;50.120;-5.168;2022-07-10T14:51:15;1.63;;;0.70;;
69744;SDS011;57015;50.120;-5.168;2022-07-10T14:53:40;2.47;;;0.70;;
69744;SDS011;57015;50.120;-5.168;2022-07-10T14:56:06;3.45;;;0.60;;
69744;SDS011;57015;50.120;-5.168;2022-07-10T14:58:32;2.07;;;0.60;;
69744;SDS011;57015;50.120;-5.168;2022-07-10T15:00:58;2.47;;;0.90;;
69744;SDS011;57015;50.120;-5.168;2022-07-10T15:03:24;2.78;;;0.85;;
69744;SDS011;57015;50.120;-5.168;2022-07-10T15:05:50;1.97;;;0.67;;
69744;SDS011;57015;50.120;-5.168;2022-07-10T15:08:21;2.28;;;0.80;;
69744;SDS011;57015;50.120;-5.168;2022-07-10T15:10:46;1.60;;;0.67;;
69744;SDS011;57015;50.120;-5.168;2022-07-10T15:13:12;2.67;;;0.95;;
69744;SDS011;57015;50.120;-5.168;2022-07-10T15:15:38;1.93;;;0.60;;
69744;SDS011;57015;50.120;-5.168;2022-07-10T15:18:03;1.60;;;0.60;;
69744;SDS011;57015;50.120;-5.168;2022-07-10T15:20:29;2.37;;;0.50;;
69744;SDS011;57015;50.120;-5.168;2022-07-10T15:22:54;2.38;;;0.52;;